createdAt,value
2023-02-12T00:00:09.004Z,56
2023-02-12T00:01:48.696Z,56
2023-02-12T00:03:28.474Z,56
2023-02-12T00:05:08.220Z,56
2023-02-12T00:06:48.005Z,56
2023-02-12T00:08:27.754Z,56
2023-02-12T00:10:07.528Z,56
2023-02-12T00:11:47.299Z,57
2023-02-12T00:13:27.069Z,57
2023-02-12T00:15:06.818Z,56
2023-02-12T00:16:46.558Z,56
2023-02-12T00:18:26.349Z,56
2023-02-12T00:20:06.091Z,56
2023-02-12T00:21:45.883Z,56
2023-02-12T00:23:25.638Z,56
2023-02-12T00:25:05.389Z,56
2023-02-12T00:26:45.182Z,56
2023-02-12T00:28:24.912Z,56
2023-02-12T00:30:04.682Z,56
2023-02-12T00:31:44.445Z,57
2023-02-12T00:33:24.231Z,56
2023-02-12T00:35:03.971Z,56
2023-02-12T00:36:43.741Z,56
2023-02-12T00:38:23.527Z,56
2023-02-12T00:40:03.269Z,57
2023-02-12T00:41:43.041Z,56
2023-02-12T00:43:22.825Z,56
2023-02-12T00:45:02.564Z,57
2023-02-12T00:46:42.326Z,56
2023-02-12T00:48:22.096Z,56
2023-02-12T00:50:01.870Z,57
2023-02-12T00:51:41.620Z,56
2023-02-12T00:53:21.393Z,56
2023-02-12T00:55:01.162Z,56
2023-02-12T00:56:40.947Z,56
2023-02-12T00:58:20.683Z,56
2023-02-12T01:00:00.440Z,56
2023-02-12T01:01:40.195Z,56
2023-02-12T01:03:19.955Z,56
2023-02-12T01:04:59.749Z,56
2023-02-12T01:06:39.479Z,56
2023-02-12T01:08:19.271Z,56
2023-02-12T01:09:59.066Z,57
2023-02-12T01:11:38.778Z,56
2023-02-12T01:13:18.563Z,56
2023-02-12T01:14:58.358Z,56
2023-02-12T01:16:38.082Z,57
2023-02-12T01:18:17.835Z,56
2023-02-12T01:19:57.593Z,57
2023-02-12T01:21:37.363Z,56
2023-02-12T01:23:17.149Z,56
2023-02-12T01:24:56.899Z,56
2023-02-12T01:26:36.659Z,56
2023-02-12T01:28:16.424Z,56
2023-02-12T01:29:56.195Z,56
2023-02-12T01:31:35.956Z,56
2023-02-12T01:33:15.717Z,56
2023-02-12T01:34:55.477Z,56
2023-02-12T01:36:35.240Z,56
2023-02-12T01:38:15.023Z,56
2023-02-12T01:39:54.771Z,56
2023-02-12T01:41:34.535Z,56
2023-02-12T01:43:14.285Z,56
2023-02-12T01:44:54.067Z,56
2023-02-12T01:46:33.834Z,56
2023-02-12T01:48:13.589Z,56
2023-02-12T01:49:53.365Z,56
2023-02-12T01:51:33.145Z,56
2023-02-12T01:53:12.889Z,56
2023-02-12T01:54:52.668Z,56
2023-02-12T01:56:32.502Z,56
2023-02-12T01:58:12.167Z,56
2023-02-12T01:59:51.944Z,56
2023-02-12T02:01:31.707Z,56
2023-02-12T02:03:11.469Z,56
2023-02-12T02:04:51.220Z,56
2023-02-12T02:06:31.001Z,56
2023-02-12T02:08:10.739Z,56
2023-02-12T02:09:50.524Z,56
2023-02-12T02:11:30.296Z,56
2023-02-12T02:13:10.094Z,56
2023-02-12T02:14:49.813Z,56
2023-02-12T02:16:29.583Z,56
2023-02-12T02:18:09.349Z,56
2023-02-12T02:19:49.100Z,56
2023-02-12T02:21:28.891Z,56
2023-02-12T02:23:08.634Z,56
2023-02-12T02:24:48.389Z,56
2023-02-12T02:26:28.162Z,56
2023-02-12T02:28:07.917Z,56
2023-02-12T02:29:47.695Z,56
2023-02-12T02:31:27.437Z,56
2023-02-12T02:33:07.195Z,56
2023-02-12T02:34:46.982Z,56
2023-02-12T02:36:26.745Z,56
2023-02-12T02:38:06.511Z,56
2023-02-12T02:39:46.276Z,56
2023-02-12T02:41:26.033Z,57
2023-02-12T02:43:05.807Z,56
2023-02-12T02:44:45.553Z,56
2023-02-12T02:46:25.344Z,56
2023-02-12T02:48:05.102Z,56
2023-02-12T02:49:44.847Z,56
2023-02-12T02:51:24.610Z,56
2023-02-12T02:53:04.378Z,56
2023-02-12T02:54:44.150Z,56
2023-02-12T02:56:23.912Z,56
2023-02-12T02:58:03.673Z,56
2023-02-12T02:59:43.435Z,56
2023-02-12T03:01:23.192Z,56
2023-02-12T03:03:02.988Z,56
2023-02-12T03:04:42.724Z,56
2023-02-12T03:06:22.485Z,56
2023-02-12T03:08:02.261Z,56
2023-02-12T03:09:42.017Z,56
2023-02-12T03:11:21.770Z,56
2023-02-12T03:13:01.542Z,56
2023-02-12T03:14:41.312Z,56
2023-02-12T03:16:21.062Z,56
2023-02-12T03:18:00.835Z,56
2023-02-12T03:19:40.617Z,56
2023-02-12T03:21:20.363Z,56
2023-02-12T03:23:00.138Z,56
2023-02-12T03:24:39.905Z,56
2023-02-12T03:26:19.664Z,56
2023-02-12T03:27:59.417Z,56
2023-02-12T03:29:39.194Z,56
2023-02-12T03:31:18.948Z,56
2023-02-12T03:32:58.717Z,56
2023-02-12T03:34:38.471Z,56
2023-02-12T03:36:18.240Z,56
2023-02-12T03:37:58.006Z,56
2023-02-12T03:39:37.772Z,56
2023-02-12T03:41:17.525Z,56
2023-02-12T03:42:57.310Z,56
2023-02-12T03:44:37.054Z,56
2023-02-12T03:46:16.825Z,56
2023-02-12T03:47:56.581Z,56
2023-02-12T03:49:36.345Z,56
2023-02-12T03:51:16.096Z,56
2023-02-12T03:52:55.887Z,56
2023-02-12T03:54:35.631Z,56
2023-02-12T03:56:15.394Z,56
2023-02-12T03:57:55.175Z,56
2023-02-12T03:59:34.934Z,56
2023-02-12T04:01:14.711Z,56
2023-02-12T04:02:54.472Z,56
2023-02-12T04:04:34.271Z,56
2023-02-12T04:06:14.013Z,56
2023-02-12T04:07:53.767Z,56
2023-02-12T04:09:33.495Z,56
2023-02-12T04:11:13.282Z,56
2023-02-12T04:12:53.060Z,56
2023-02-12T04:14:32.807Z,56
2023-02-12T04:16:12.594Z,56
2023-02-12T04:17:52.354Z,56
2023-02-12T04:19:32.090Z,56
2023-02-12T04:21:11.855Z,56
2023-02-12T04:22:51.632Z,56
2023-02-12T04:24:31.378Z,56
2023-02-12T04:26:11.150Z,56
2023-02-12T04:27:50.918Z,55
2023-02-12T04:29:30.684Z,55
2023-02-12T04:31:10.436Z,55
2023-02-12T04:32:50.209Z,56
2023-02-12T04:34:29.978Z,56
2023-02-12T04:36:09.735Z,56
2023-02-12T04:37:49.502Z,56
2023-02-12T04:39:29.259Z,56
2023-02-12T04:41:09.034Z,56
2023-02-12T04:42:48.791Z,56
2023-02-12T04:44:28.564Z,56
2023-02-12T04:46:08.323Z,56
2023-02-12T04:47:48.088Z,56
2023-02-12T04:49:27.839Z,56
2023-02-12T04:51:07.615Z,55
2023-02-12T04:52:47.388Z,55
2023-02-12T04:54:27.127Z,56
2023-02-12T04:56:06.921Z,56
2023-02-12T04:57:46.666Z,55
2023-02-12T04:59:26.416Z,55
2023-02-12T05:01:06.187Z,55
2023-02-12T05:02:45.964Z,56
2023-02-12T05:04:25.717Z,55
2023-02-12T05:06:05.480Z,55
2023-02-12T05:07:45.254Z,56
2023-02-12T05:09:25.008Z,55
2023-02-12T05:11:04.775Z,55
2023-02-12T05:12:44.558Z,56
2023-02-12T05:14:24.309Z,56
2023-02-12T05:16:04.074Z,55
2023-02-12T05:17:43.832Z,55
2023-02-12T05:19:23.594Z,55
2023-02-12T05:21:03.369Z,55
2023-02-12T05:22:43.129Z,55
2023-02-12T05:24:22.875Z,55
2023-02-12T05:26:02.642Z,55
2023-02-12T05:27:42.410Z,55
2023-02-12T05:29:22.179Z,55
2023-02-12T05:31:01.932Z,55
2023-02-12T05:32:41.710Z,55
2023-02-12T05:34:21.482Z,55
2023-02-12T05:36:01.228Z,55
2023-02-12T05:37:41.014Z,55
2023-02-12T05:39:20.755Z,55
2023-02-12T05:42:40.294Z,55
2023-02-12T05:44:20.041Z,55
2023-02-12T05:45:59.826Z,55
2023-02-12T05:47:39.571Z,55
2023-02-12T05:49:19.340Z,55
2023-02-12T05:50:59.098Z,55
2023-02-12T05:52:38.867Z,55
2023-02-12T05:54:18.634Z,55
2023-02-12T05:55:58.397Z,55
2023-02-12T05:59:17.921Z,55
2023-02-12T06:00:57.687Z,55
2023-02-12T06:02:37.446Z,56
2023-02-12T06:04:17.232Z,56
2023-02-12T06:05:56.973Z,55
2023-02-12T06:07:36.740Z,55
2023-02-12T06:09:16.498Z,55
2023-02-12T06:10:56.267Z,55
2023-02-12T06:12:36.059Z,55
2023-02-12T06:14:15.835Z,55
2023-02-12T06:15:55.558Z,55
2023-02-12T06:17:35.331Z,55
2023-02-12T06:19:15.075Z,55
2023-02-12T06:20:54.847Z,55
2023-02-12T06:22:34.622Z,55
2023-02-12T06:24:14.437Z,55
2023-02-12T06:25:54.161Z,56
2023-02-12T06:27:33.907Z,56
2023-02-12T06:29:13.675Z,55
2023-02-12T06:30:53.441Z,56
2023-02-12T06:32:33.214Z,56
2023-02-12T06:34:12.963Z,56
2023-02-12T06:35:52.727Z,56
2023-02-12T06:37:32.481Z,56
2023-02-12T06:39:12.261Z,56
2023-02-12T06:40:52.033Z,56
2023-02-12T06:42:31.789Z,56
2023-02-12T06:44:11.545Z,56
2023-02-12T06:45:51.331Z,56
2023-02-12T06:47:31.097Z,56
2023-02-12T06:49:10.829Z,56
2023-02-12T06:50:50.608Z,56
2023-02-12T06:52:30.358Z,56
2023-02-12T06:54:10.124Z,56
2023-02-12T06:55:49.891Z,57
2023-02-12T06:57:29.672Z,57
2023-02-12T06:59:09.417Z,56
2023-02-12T07:00:49.197Z,57
2023-02-12T07:02:28.989Z,56
2023-02-12T07:04:08.718Z,55
2023-02-12T07:05:48.493Z,57
2023-02-12T07:07:28.257Z,57
2023-02-12T07:09:08.062Z,57
2023-02-12T07:10:47.774Z,57
2023-02-12T07:12:27.543Z,56
2023-02-12T07:14:07.307Z,57
2023-02-12T07:15:47.055Z,57
2023-02-12T07:17:26.875Z,57
2023-02-12T07:19:06.581Z,57
2023-02-12T07:20:46.336Z,57
2023-02-12T07:22:26.140Z,59
2023-02-12T07:24:05.903Z,59
2023-02-12T07:25:45.632Z,59
2023-02-12T07:27:25.394Z,59
2023-02-12T07:29:05.173Z,60
2023-02-12T07:30:44.934Z,61
2023-02-12T07:32:24.692Z,61
2023-02-12T07:34:04.468Z,62
2023-02-12T07:35:44.237Z,61
2023-02-12T07:37:24.003Z,62
2023-02-12T07:39:03.750Z,62
2023-02-12T07:40:43.517Z,62
2023-02-12T07:42:23.287Z,62
2023-02-12T07:44:03.045Z,62
2023-02-12T07:45:42.814Z,63
2023-02-12T07:47:22.619Z,61
2023-02-12T07:49:02.355Z,63
2023-02-12T07:50:42.102Z,63
2023-02-12T07:52:21.861Z,63
2023-02-12T07:54:01.698Z,64
2023-02-12T07:55:41.459Z,65
2023-02-12T07:57:21.249Z,64
2023-02-12T07:59:00.982Z,64
2023-02-12T08:00:40.721Z,66
2023-02-12T08:02:20.463Z,65
2023-02-12T08:04:00.214Z,65
2023-02-12T08:05:40.061Z,66
2023-02-12T08:07:19.738Z,66
2023-02-12T08:08:59.499Z,67
2023-02-12T08:10:39.276Z,67
2023-02-12T08:12:19.082Z,68
2023-02-12T08:13:58.851Z,68
2023-02-12T08:15:38.551Z,69
2023-02-12T08:17:18.339Z,69
2023-02-12T08:18:58.132Z,68
2023-02-12T08:20:37.855Z,68
2023-02-12T08:22:17.739Z,68
2023-02-12T08:23:57.446Z,69
2023-02-12T08:25:37.151Z,70
2023-02-12T08:27:16.911Z,71
2023-02-12T08:28:56.664Z,70
2023-02-12T08:30:36.445Z,70
2023-02-12T08:32:16.260Z,70
2023-02-12T08:33:55.955Z,70
2023-02-12T08:35:35.742Z,70
2023-02-12T08:37:15.481Z,70
2023-02-12T08:38:55.256Z,71
2023-02-12T08:40:35.027Z,71
2023-02-12T08:42:14.858Z,71
2023-02-12T08:43:54.629Z,71
2023-02-12T08:45:34.304Z,72
2023-02-12T08:47:14.143Z,73
2023-02-12T08:48:53.841Z,73
2023-02-12T08:50:33.593Z,74
2023-02-12T08:52:13.363Z,74
2023-02-12T08:53:53.132Z,75
2023-02-12T08:55:32.887Z,74
2023-02-12T08:57:12.702Z,73
2023-02-12T08:58:52.415Z,74
2023-02-12T09:00:32.176Z,74
2023-02-12T09:02:11.936Z,75
2023-02-12T09:03:51.696Z,76
2023-02-12T09:05:31.528Z,76
2023-02-12T09:07:11.285Z,76
2023-02-12T09:08:50.998Z,78
2023-02-12T09:10:30.760Z,77
2023-02-12T09:12:10.556Z,78
2023-02-12T09:13:50.309Z,78
2023-02-12T09:15:30.054Z,78
2023-02-12T09:17:09.839Z,77
2023-02-12T09:18:49.581Z,78
2023-02-12T09:20:29.333Z,79
2023-02-12T09:22:09.120Z,79
2023-02-12T09:23:48.873Z,78
2023-02-12T09:25:28.650Z,79
2023-02-12T09:27:08.471Z,80
2023-02-12T09:28:48.170Z,80
2023-02-12T09:30:27.935Z,80
2023-02-12T09:32:07.696Z,79
2023-02-12T09:33:47.466Z,78
2023-02-12T09:35:27.232Z,78
2023-02-12T09:37:06.987Z,77
2023-02-12T09:38:46.742Z,77
2023-02-12T09:40:26.516Z,76
2023-02-12T09:42:06.285Z,77
2023-02-12T09:43:46.035Z,77
2023-02-12T09:45:25.799Z,78
2023-02-12T09:47:05.564Z,80
2023-02-12T09:48:45.330Z,80
2023-02-12T09:50:25.095Z,81
2023-02-12T09:52:04.915Z,84
2023-02-12T09:53:44.652Z,100
2023-02-12T09:55:24.385Z,100
2023-02-12T09:57:04.145Z,100
2023-02-12T09:58:43.909Z,100
2023-02-12T10:00:23.684Z,100
2023-02-12T10:02:03.468Z,100
2023-02-12T10:03:43.227Z,100
2023-02-12T10:05:22.980Z,100
2023-02-12T10:07:02.777Z,100
2023-02-12T10:08:42.496Z,88
2023-02-12T10:10:22.286Z,87
2023-02-12T10:12:02.083Z,86
2023-02-12T10:13:41.805Z,89
2023-02-12T10:15:21.583Z,95
2023-02-12T10:17:01.333Z,94
2023-02-12T10:18:41.092Z,94
2023-02-12T10:20:20.899Z,92
2023-02-12T10:22:00.671Z,89
2023-02-12T10:23:40.500Z,88
2023-02-12T10:25:20.343Z,86
2023-02-12T10:27:00.142Z,85
2023-02-12T10:28:39.722Z,83
2023-02-12T10:30:19.671Z,82
2023-02-12T10:31:59.398Z,81
2023-02-12T10:33:39.086Z,80
2023-02-12T10:35:18.858Z,81
2023-02-12T10:36:58.667Z,84
2023-02-12T10:38:38.383Z,88
2023-02-12T10:40:18.175Z,100
2023-02-12T10:41:57.856Z,85
2023-02-12T10:43:37.686Z,100
2023-02-12T10:45:17.453Z,100
2023-02-12T10:46:57.200Z,100
2023-02-12T10:48:36.969Z,100
2023-02-12T10:50:16.820Z,100
2023-02-12T10:51:56.539Z,100
2023-02-12T10:53:36.147Z,100
2023-02-12T10:55:16.056Z,100
2023-02-12T10:56:55.760Z,100
2023-02-12T10:58:35.597Z,100
2023-02-12T11:00:15.284Z,100
2023-02-12T11:01:55.034Z,100
2023-02-12T11:03:34.936Z,100
2023-02-12T11:05:14.594Z,100
2023-02-12T11:06:54.379Z,100
2023-02-12T11:08:34.128Z,100
2023-02-12T11:10:13.861Z,100
2023-02-12T11:11:53.646Z,100
2023-02-12T11:13:33.296Z,100
2023-02-12T11:15:13.252Z,100
2023-02-12T11:16:52.997Z,100
2023-02-12T11:18:32.770Z,100
2023-02-12T11:20:12.524Z,100
2023-02-12T11:21:52.158Z,100
2023-02-12T11:23:32.024Z,100
2023-02-12T11:25:11.826Z,100
2023-02-12T11:26:51.546Z,100
2023-02-12T11:28:31.247Z,100
2023-02-12T11:30:11.128Z,100
2023-02-12T11:31:50.844Z,100
2023-02-12T11:33:30.682Z,100
2023-02-12T11:35:10.228Z,100
2023-02-12T11:36:49.991Z,100
2023-02-12T11:38:29.773Z,100
2023-02-12T11:40:09.633Z,100
2023-02-12T11:41:49.293Z,100
2023-02-12T11:43:29.070Z,100
2023-02-12T11:45:09.025Z,100
2023-02-12T11:46:48.738Z,100
2023-02-12T11:48:28.347Z,88
2023-02-12T11:50:08.111Z,82
2023-02-12T11:51:47.888Z,81
2023-02-12T11:53:27.653Z,79
2023-02-12T11:55:07.410Z,81
2023-02-12T11:56:47.170Z,83
2023-02-12T11:58:26.933Z,90
2023-02-12T12:00:06.698Z,86
2023-02-12T12:01:46.472Z,85
2023-02-12T12:03:26.254Z,82
2023-02-12T12:05:05.992Z,100
2023-02-12T12:08:25.510Z,100
2023-02-12T12:10:05.285Z,100
2023-02-12T12:11:45.041Z,100
2023-02-12T12:13:24.806Z,100
2023-02-12T12:15:04.565Z,100
2023-02-12T12:16:44.349Z,100
2023-02-12T12:18:24.098Z,100
2023-02-12T12:20:03.858Z,100
2023-02-12T12:21:43.610Z,100
2023-02-12T12:23:23.382Z,100
2023-02-12T12:25:03.189Z,100
2023-02-12T12:26:42.930Z,100
2023-02-12T12:28:22.673Z,100
2023-02-12T12:30:02.451Z,100
2023-02-12T12:31:42.226Z,100
2023-02-12T12:33:22.402Z,100
2023-02-12T12:35:01.899Z,100
2023-02-12T12:36:41.495Z,100
2023-02-12T12:38:21.373Z,100
2023-02-12T12:40:01.071Z,100
2023-02-12T12:41:40.789Z,100
2023-02-12T12:43:20.564Z,100
2023-02-12T12:45:00.352Z,100
2023-02-12T12:46:40.079Z,100
2023-02-12T12:48:20.017Z,100
2023-02-12T12:49:59.797Z,100
2023-02-12T12:51:39.553Z,100
2023-02-12T12:53:19.230Z,100
2023-02-12T12:54:59.123Z,100
2023-02-12T12:56:38.746Z,100
2023-02-12T12:58:18.569Z,100
2023-02-12T12:59:58.234Z,100
2023-02-12T13:01:38.163Z,100
2023-02-12T13:03:17.887Z,100
2023-02-12T13:04:57.653Z,100
2023-02-12T13:06:37.372Z,100
2023-02-12T13:08:17.055Z,100
2023-02-12T13:09:56.794Z,100
2023-02-12T13:11:36.542Z,100
2023-02-12T13:13:16.296Z,100
2023-02-12T13:14:56.063Z,100
2023-02-12T13:16:35.853Z,100
2023-02-12T13:18:15.593Z,100
2023-02-12T13:19:55.415Z,100
2023-02-12T13:21:35.135Z,100
2023-02-12T13:23:14.893Z,100
2023-02-12T13:24:54.712Z,100
2023-02-12T13:26:34.416Z,100
2023-02-12T13:28:14.195Z,100
2023-02-12T13:29:53.979Z,100
2023-02-12T13:31:33.791Z,100
2023-02-12T13:33:13.520Z,100
2023-02-12T13:34:53.255Z,100
2023-02-12T13:36:33.015Z,100
2023-02-12T13:38:12.763Z,100
2023-02-12T13:39:52.600Z,100
2023-02-12T13:43:12.085Z,98
2023-02-12T13:44:51.906Z,98
2023-02-12T13:46:31.601Z,100
2023-02-12T13:48:11.376Z,98
2023-02-12T13:49:51.202Z,98
2023-02-12T13:51:30.938Z,100
2023-02-12T13:54:50.413Z,100
2023-02-12T13:58:09.951Z,97
2023-02-12T13:59:49.696Z,100
2023-02-12T14:01:29.530Z,100
2023-02-12T14:03:09.309Z,99
2023-02-12T14:04:49.014Z,99
2023-02-12T14:06:28.830Z,100
2023-02-12T14:08:08.586Z,98
2023-02-12T14:09:48.395Z,100
2023-02-12T14:11:28.055Z,99
2023-02-12T14:13:07.811Z,98
2023-02-12T14:14:47.634Z,99
2023-02-12T14:16:27.360Z,98
2023-02-12T14:18:07.156Z,99
2023-02-12T14:19:47.020Z,97
2023-02-12T14:21:26.779Z,98
2023-02-12T14:23:06.467Z,100
2023-02-12T14:24:46.261Z,99
2023-02-12T14:26:26.038Z,98
2023-02-12T14:28:05.778Z,100
2023-02-12T14:29:45.525Z,100
2023-02-12T14:31:25.200Z,100
2023-02-12T14:33:04.970Z,100
2023-02-12T14:34:44.726Z,100
2023-02-12T14:36:24.538Z,99
2023-02-12T14:38:04.272Z,100
2023-02-12T14:39:44.022Z,97
2023-02-12T14:41:23.783Z,98
2023-02-12T14:43:03.544Z,100
2023-02-12T14:44:43.318Z,100
2023-02-12T14:46:23.237Z,100
2023-02-12T14:48:02.837Z,99
2023-02-12T14:51:22.371Z,100
2023-02-12T14:53:02.149Z,100
2023-02-12T14:54:41.899Z,100
2023-02-12T14:56:21.736Z,98
2023-02-12T14:58:01.431Z,98
2023-02-12T14:59:41.189Z,98
2023-02-12T15:01:20.955Z,98
2023-02-12T15:03:00.723Z,98
2023-02-12T15:04:40.485Z,99
2023-02-12T15:06:20.260Z,100
2023-02-12T15:08:00.022Z,100
2023-02-12T15:09:39.759Z,99
2023-02-12T15:11:19.596Z,98
2023-02-12T15:12:59.295Z,99
2023-02-12T15:14:39.054Z,98
2023-02-12T15:16:18.953Z,97
2023-02-12T15:17:58.662Z,85
2023-02-12T15:19:38.440Z,83
2023-02-12T15:21:18.265Z,80
2023-02-12T15:22:58.028Z,78
2023-02-12T15:24:37.818Z,77
2023-02-12T15:27:57.261Z,75
2023-02-12T15:29:37.066Z,75
2023-02-12T15:31:16.807Z,74
2023-02-12T15:32:56.656Z,73
2023-02-12T15:34:36.342Z,72
2023-02-12T15:36:16.124Z,72
2023-02-12T15:37:55.757Z,72
2023-02-12T15:39:35.714Z,71
2023-02-12T15:41:15.484Z,71
2023-02-12T15:42:55.169Z,71
2023-02-12T15:44:34.973Z,70
2023-02-12T15:46:14.625Z,70
2023-02-12T15:47:54.508Z,70
2023-02-12T15:49:34.284Z,70
2023-02-12T15:51:13.880Z,70
2023-02-12T15:52:53.636Z,69
2023-02-12T15:54:33.409Z,69
2023-02-12T15:56:13.164Z,69
2023-02-12T15:57:52.931Z,68
2023-02-12T15:59:32.687Z,69
2023-02-12T16:01:12.460Z,69
2023-02-12T16:02:52.256Z,69
2023-02-12T16:04:32.004Z,68
2023-02-12T16:06:11.762Z,68
2023-02-12T16:07:51.530Z,68
2023-02-12T16:09:31.366Z,68
2023-02-12T16:11:11.044Z,68
2023-02-12T16:12:50.824Z,68
2023-02-12T16:14:30.603Z,68
2023-02-12T16:16:10.379Z,68
2023-02-12T16:17:50.105Z,68
2023-02-12T16:19:29.870Z,67
2023-02-12T16:21:09.686Z,67
2023-02-12T16:22:49.438Z,67
2023-02-12T16:24:29.224Z,67
2023-02-12T16:26:08.973Z,67
2023-02-12T16:27:48.679Z,67
2023-02-12T16:29:28.450Z,67
2023-02-12T16:31:08.288Z,67
2023-02-12T16:32:48.048Z,67
2023-02-12T16:34:27.735Z,67
2023-02-12T16:36:07.630Z,67
2023-02-12T16:37:47.398Z,66
2023-02-12T16:39:27.098Z,66
2023-02-12T16:41:06.932Z,66
2023-02-12T16:42:46.625Z,66
2023-02-12T16:44:26.464Z,66
2023-02-12T16:46:06.088Z,66
2023-02-12T16:47:45.956Z,66
2023-02-12T16:49:25.724Z,66
2023-02-12T16:51:05.565Z,66
2023-02-12T16:52:45.188Z,66
2023-02-12T16:54:24.956Z,66
2023-02-12T16:56:04.760Z,66
2023-02-12T16:57:44.601Z,66
2023-02-12T16:59:24.384Z,66
2023-02-12T17:01:04.045Z,66
2023-02-12T17:02:43.909Z,66
2023-02-12T17:04:23.480Z,65
2023-02-12T17:06:03.392Z,65
2023-02-12T17:07:43.187Z,65
2023-02-12T17:09:22.855Z,65
2023-02-12T17:11:02.534Z,65
2023-02-12T17:12:42.311Z,65
2023-02-12T17:14:22.068Z,65
2023-02-12T17:17:41.593Z,65
2023-02-12T17:19:21.851Z,65
2023-02-12T17:21:01.138Z,65
2023-02-12T17:22:40.889Z,65
2023-02-12T17:24:20.670Z,65
2023-02-12T17:26:00.415Z,65
2023-02-12T17:27:40.177Z,65
2023-02-12T17:29:20.007Z,65
2023-02-12T17:30:59.702Z,65
2023-02-12T17:32:39.504Z,65
2023-02-12T17:34:19.229Z,65
2023-02-12T17:35:59.052Z,65
2023-02-12T17:37:38.779Z,65
2023-02-12T17:39:18.625Z,65
2023-02-12T17:40:58.365Z,65
2023-02-12T17:42:38.053Z,65
2023-02-12T17:44:17.940Z,65
2023-02-12T17:47:37.499Z,65
2023-02-12T17:49:17.147Z,65
2023-02-12T17:50:56.882Z,65
2023-02-12T17:52:36.671Z,65
2023-02-12T17:54:16.488Z,65
2023-02-12T17:59:15.744Z,65
2023-02-12T18:00:55.482Z,64
2023-02-12T18:04:14.982Z,65
2023-02-12T18:05:54.889Z,65
2023-02-12T18:07:34.664Z,64
2023-02-12T18:09:14.473Z,64
2023-02-12T18:10:54.031Z,64
2023-02-12T18:12:33.816Z,64
2023-02-12T18:14:13.567Z,64
2023-02-12T18:15:53.412Z,64
2023-02-12T18:17:33.197Z,64
2023-02-12T18:19:13.060Z,64
2023-02-12T18:20:52.656Z,64
2023-02-12T18:22:32.418Z,64
2023-02-12T18:24:12.241Z,64
2023-02-12T18:27:31.683Z,64
2023-02-12T18:29:11.442Z,64
2023-02-12T18:30:51.215Z,64
2023-02-12T18:32:30.961Z,64
2023-02-12T18:34:10.735Z,64
2023-02-12T18:35:50.496Z,64
2023-02-12T18:37:30.307Z,64
2023-02-12T18:39:10.020Z,64
2023-02-12T18:42:29.549Z,64
2023-02-12T18:44:09.329Z,64
2023-02-12T18:45:49.103Z,64
2023-02-12T18:47:28.828Z,64
2023-02-12T18:49:08.614Z,64
2023-02-12T18:50:48.405Z,64
2023-02-12T18:52:28.150Z,64
2023-02-12T18:54:07.978Z,64
2023-02-12T18:55:47.668Z,64
2023-02-12T18:57:27.458Z,64
2023-02-12T18:59:07.290Z,64
2023-02-12T19:00:46.952Z,64
2023-02-12T19:04:06.481Z,64
2023-02-12T19:05:46.252Z,64
2023-02-12T19:07:26.114Z,64
2023-02-12T19:09:05.809Z,64
2023-02-12T19:10:45.628Z,64
2023-02-12T19:12:25.344Z,64
2023-02-12T19:14:05.059Z,64
2023-02-12T19:17:24.698Z,64
2023-02-12T19:19:04.358Z,64
2023-02-12T19:22:23.925Z,63
2023-02-12T19:24:03.773Z,64
2023-02-12T19:25:43.399Z,64
2023-02-12T19:27:23.304Z,64
2023-02-12T19:29:03.143Z,64
2023-02-12T19:34:02.309Z,64
2023-02-12T19:35:42.140Z,64
2023-02-12T19:37:21.963Z,63
2023-02-12T19:39:01.689Z,63
2023-02-12T19:40:41.390Z,63
2023-02-12T19:44:00.980Z,63
2023-02-12T19:45:40.663Z,63
2023-02-12T19:47:20.347Z,63
2023-02-12T19:49:00.121Z,63
2023-02-12T19:50:39.874Z,63
2023-02-12T19:52:19.642Z,64
2023-02-12T19:53:59.404Z,63
2023-02-12T19:55:39.157Z,63
2023-02-12T19:57:18.933Z,63
2023-02-12T19:58:58.693Z,63
2023-02-12T20:00:38.448Z,63
2023-02-12T20:03:57.985Z,63
2023-02-12T20:07:17.521Z,63
2023-02-12T20:08:57.269Z,63
2023-02-12T20:10:37.046Z,63
2023-02-12T20:12:16.803Z,63
2023-02-12T20:13:56.573Z,63
2023-02-12T20:15:36.334Z,63
2023-02-12T20:17:16.097Z,63
2023-02-12T20:18:55.864Z,63
2023-02-12T20:20:35.624Z,63
2023-02-12T20:22:15.387Z,63
2023-02-12T20:23:55.146Z,63
2023-02-12T20:25:34.915Z,63
2023-02-12T20:27:14.672Z,63
2023-02-12T20:28:54.437Z,63
2023-02-12T20:30:34.201Z,63
2023-02-12T20:32:13.960Z,63
2023-02-12T20:33:53.745Z,63
2023-02-12T20:35:33.503Z,63
2023-02-12T20:37:13.261Z,63
2023-02-12T20:38:53.022Z,63
2023-02-12T20:40:32.786Z,63
2023-02-12T20:42:12.564Z,63
2023-02-12T20:43:52.317Z,63
2023-02-12T20:45:32.089Z,63
2023-02-12T20:47:11.833Z,63
2023-02-12T20:48:51.617Z,63
2023-02-12T20:50:31.383Z,63
2023-02-12T20:52:11.151Z,63
2023-02-12T20:53:50.941Z,63
2023-02-12T20:55:30.654Z,63
2023-02-12T20:57:10.470Z,62
2023-02-12T20:58:50.175Z,63
2023-02-12T21:00:30.110Z,63
2023-02-12T21:02:09.783Z,63
2023-02-12T21:03:49.470Z,63
2023-02-12T21:05:29.238Z,63
2023-02-12T21:07:09.259Z,63
2023-02-12T21:08:48.939Z,63
2023-02-12T21:10:28.699Z,63
2023-02-12T21:12:08.435Z,63
2023-02-12T21:13:48.186Z,63
2023-02-12T21:15:27.994Z,63
2023-02-12T21:17:07.585Z,63
2023-02-12T21:18:47.350Z,63
2023-02-12T21:20:27.372Z,63
2023-02-12T21:22:07.011Z,63
2023-02-12T21:23:46.808Z,63
2023-02-12T21:25:26.564Z,63
2023-02-12T21:27:06.385Z,63
2023-02-12T21:28:45.920Z,63
2023-02-12T21:30:25.806Z,63
2023-02-12T21:32:05.506Z,63
2023-02-12T21:33:45.365Z,63
2023-02-12T21:35:25.121Z,63
2023-02-12T21:37:04.911Z,63
2023-02-12T21:38:44.676Z,63
2023-02-12T21:40:24.461Z,63
2023-02-12T21:42:04.034Z,62
2023-02-12T21:43:43.992Z,62
2023-02-12T21:45:23.681Z,62
2023-02-12T21:47:03.584Z,62
2023-02-12T21:48:43.279Z,62
2023-02-12T21:50:23.005Z,62
2023-02-12T21:52:02.840Z,62
2023-02-12T21:53:42.532Z,62
2023-02-12T21:55:22.291Z,63
2023-02-12T21:57:02.089Z,63
2023-02-12T21:58:41.835Z,62
2023-02-12T22:00:21.582Z,62
2023-02-12T22:02:01.196Z,62
2023-02-12T22:03:40.992Z,62
2023-02-12T22:05:20.881Z,62
2023-02-12T22:07:00.662Z,62
2023-02-12T22:08:40.357Z,62
2023-02-12T22:10:20.021Z,62
2023-02-12T22:11:59.942Z,62
2023-02-12T22:13:39.711Z,62
2023-02-12T22:15:19.453Z,62
2023-02-12T22:16:59.065Z,62
2023-02-12T22:18:38.846Z,62
2023-02-12T22:20:18.691Z,62
2023-02-12T22:23:38.342Z,62
2023-02-12T22:25:18.081Z,62
2023-02-12T22:26:57.836Z,62
2023-02-12T22:28:37.564Z,62
2023-02-12T22:30:17.183Z,62
2023-02-12T22:31:57.132Z,62
2023-02-12T22:33:36.890Z,62
2023-02-12T22:35:16.692Z,62
2023-02-12T22:36:56.437Z,62
2023-02-12T22:38:36.197Z,62
2023-02-12T22:40:15.775Z,62
2023-02-12T22:41:55.689Z,62
2023-02-12T22:43:35.431Z,62
2023-02-12T22:45:15.301Z,62
2023-02-12T22:46:54.973Z,62
2023-02-12T22:48:34.741Z,62
2023-02-12T22:50:14.588Z,62
2023-02-12T22:53:34.067Z,62
2023-02-12T22:55:13.806Z,62
2023-02-12T22:56:53.602Z,62
2023-02-12T22:58:33.326Z,62
2023-02-12T23:00:13.204Z,62
2023-02-12T23:01:52.937Z,62
2023-02-12T23:03:32.570Z,62
2023-02-12T23:05:12.360Z,62
2023-02-12T23:06:52.167Z,62
2023-02-12T23:10:11.690Z,62
2023-02-12T23:11:51.439Z,62
2023-02-12T23:13:31.035Z,62
2023-02-12T23:15:10.943Z,62
2023-02-12T23:16:50.736Z,62
2023-02-12T23:18:30.492Z,62
2023-02-12T23:20:10.243Z,62
2023-02-12T23:21:49.974Z,62
2023-02-12T23:23:29.797Z,62
2023-02-12T23:25:09.496Z,62
2023-02-12T23:26:49.318Z,61
2023-02-12T23:28:29.051Z,62
2023-02-12T23:30:08.886Z,62
2023-02-12T23:31:48.522Z,62
2023-02-12T23:33:28.367Z,62
2023-02-12T23:35:08.168Z,62
2023-02-12T23:36:47.922Z,61
2023-02-12T23:38:27.752Z,62
2023-02-12T23:40:07.503Z,62
2023-02-12T23:43:26.978Z,62
2023-02-12T23:45:06.742Z,62
2023-02-12T23:46:46.561Z,61
2023-02-12T23:48:26.253Z,61
2023-02-12T23:50:05.946Z,61
2023-02-12T23:51:45.834Z,61
2023-02-12T23:53:25.609Z,61
2023-02-12T23:55:05.203Z,61
2023-02-12T23:56:45.044Z,61
2023-02-12T23:58:24.882Z,61
